Time;durP1;ratioP1;P1;durP2;ratioP2;P2;SDS_P1;SDS_P2;PMS_P1;PMS_P2;Temp;Humidity;BMP_temperature;BMP_pressure;BME280_temperature;BME280_humidity;BME280_pressure;Samples;Min_cycle;Max_cycle;Signal;HPM_P1;HPM_P2
2021/01/08 00:00:33;;;;;;;11.93;7.47;;;1.90;97.40;;;;;;4996149;28;20030;-89
2021/01/08 00:02:58;;;;;;;19.30;10.82;;;1.90;97.40;;;;;;5026512;28;20109;-89
2021/01/08 00:05:24;;;;;;;19.38;11.02;;;1.80;97.10;;;;;;5010436;28;20080;-89
2021/01/08 00:07:50;;;;;;;14.68;6.90;;;1.80;97.30;;;;;;5010855;28;20034;-91
2021/01/08 00:10:15;;;;;;;16.60;9.20;;;1.80;97.40;;;;;;5043560;28;20022;-88
2021/01/08 00:12:41;;;;;;;17.67;9.20;;;1.90;97.30;;;;;;5025724;28;20429;-89
2021/01/08 00:15:07;;;;;;;14.75;7.43;;;1.90;97.50;;;;;;5023795;28;20062;-89
2021/01/08 00:17:32;;;;;;;18.52;9.57;;;1.90;97.30;;;;;;4995955;28;20033;-91
2021/01/08 00:19:58;;;;;;;15.13;8.35;;;1.90;97.20;;;;;;5010549;28;20032;-91
2021/01/08 00:22:24;;;;;;;15.57;9.23;;;1.90;97.30;;;;;;5015175;28;20025;-82
2021/01/08 00:24:50;;;;;;;17.65;9.68;;;1.90;97.30;;;;;;5000357;28;20042;-86
2021/01/08 00:27:16;;;;;;;14.10;8.02;;;1.80;97.10;;;;;;5001030;28;20636;-91
2021/01/08 00:29:41;;;;;;;10.05;4.57;;;1.80;97.20;;;;;;5031908;28;20159;-91
2021/01/08 00:32:10;;;;;;;10.57;5.78;;;1.80;97.10;;;;;;5027465;28;20378;-91
2021/01/08 00:34:36;;;;;;;15.80;8.55;;;1.80;97.20;;;;;;5003032;28;20038;-90
2021/01/08 00:37:01;;;;;;;14.23;8.02;;;1.70;97.10;;;;;;5006416;28;20032;-92
2021/01/08 00:39:27;;;;;;;14.98;7.07;;;1.70;97.30;;;;;;5000464;28;20026;-91
2021/01/08 00:41:52;;;;;;;12.75;6.63;;;1.80;97.30;;;;;;5034531;28;20591;-92
2021/01/08 00:44:18;;;;;;;14.55;8.73;;;1.70;97.10;;;;;;5000702;28;20376;-91
2021/01/08 00:46:45;;;;;;;16.23;8.95;;;1.80;97.10;;;;;;5027772;28;20527;-91
2021/01/08 00:49:11;;;;;;;15.43;8.82;;;1.70;97.10;;;;;;5029944;28;20034;-89
2021/01/08 00:51:37;;;;;;;14.98;8.45;;;1.70;97.20;;;;;;5031921;28;20048;-87
2021/01/08 00:54:03;;;;;;;14.32;8.80;;;1.70;97.20;;;;;;5031561;28;20041;-85
2021/01/08 00:56:28;;;;;;;18.10;9.30;;;1.60;97.20;;;;;;5000139;28;20033;-88
2021/01/08 00:58:54;;;;;;;14.07;7.80;;;1.60;97.30;;;;;;5028032;28;20033;-90
2021/01/08 01:01:20;;;;;;;13.70;7.40;;;1.60;97.40;;;;;;4995534;28;20044;-89
2021/01/08 01:03:45;;;;;;;15.75;9.13;;;1.70;97.40;;;;;;5019763;28;20038;-88
2021/01/08 01:06:11;;;;;;;12.55;7.25;;;1.70;97.30;;;;;;5026503;28;20041;-87
2021/01/08 01:08:37;;;;;;;15.63;7.95;;;1.70;97.20;;;;;;4995155;28;20086;-90
2021/01/08 01:11:03;;;;;;;16.05;8.93;;;1.60;97.20;;;;;;5025562;28;20033;-90
2021/01/08 01:13:28;;;;;;;16.48;8.45;;;1.60;97.20;;;;;;5001735;28;20060;-87
2021/01/08 01:15:54;;;;;;;14.95;8.45;;;1.60;97.30;;;;;;5026100;28;20034;-90
2021/01/08 01:18:20;;;;;;;15.20;7.47;;;1.60;97.30;;;;;;4995528;28;20041;-89
2021/01/08 01:20:46;;;;;;;13.60;8.00;;;1.60;97.20;;;;;;5025017;28;20034;-89
2021/01/08 01:23:12;;;;;;;10.40;6.35;;;1.50;97.20;;;;;;5017469;28;20433;-86
2021/01/08 01:25:37;;;;;;;11.38;6.50;;;1.50;97.20;;;;;;5025048;28;20030;-87
2021/01/08 01:28:03;;;;;;;13.88;7.38;;;1.60;97.40;;;;;;5023813;28;20040;-86
2021/01/08 01:30:29;;;;;;;14.25;7.35;;;1.50;97.30;;;;;;4994370;28;20025;-82
2021/01/08 01:32:54;;;;;;;15.98;8.60;;;1.70;97.30;;;;;;4994190;28;20496;-88
2021/01/08 01:35:20;;;;;;;13.63;6.93;;;1.60;97.10;;;;;;5023455;28;20060;-87
2021/01/08 01:37:45;;;;;;;15.20;8.38;;;1.60;97.30;;;;;;5024226;28;20113;-88
2021/01/08 01:40:11;;;;;;;17.10;9.10;;;1.50;97.30;;;;;;5021559;28;20053;-87
2021/01/08 01:42:37;;;;;;;15.98;9.40;;;1.60;97.30;;;;;;5022648;28;20030;-86
2021/01/08 01:45:03;;;;;;;13.15;7.07;;;1.60;97.20;;;;;;5022985;28;20033;-83
2021/01/08 01:47:29;;;;;;;15.90;8.68;;;1.60;97.20;;;;;;4993236;28;20030;-85
2021/01/08 01:49:54;;;;;;;15.70;8.77;;;1.60;97.30;;;;;;5004918;28;20032;-85
2021/01/08 01:52:20;;;;;;;15.50;8.80;;;1.60;97.20;;;;;;4992575;28;20059;-85
2021/01/08 01:54:46;;;;;;;17.33;10.32;;;1.60;97.20;;;;;;5022523;28;20045;-86
2021/01/08 01:57:11;;;;;;;18.02;10.30;;;1.60;97.10;;;;;;5039106;28;20105;-86
2021/01/08 01:59:37;;;;;;;17.67;9.52;;;1.70;97.30;;;;;;5008796;28;20033;-85
2021/01/08 02:02:04;;;;;;;18.98;10.25;;;1.60;97.20;;;;;;5025549;28;20033;-88
2021/01/08 02:04:30;;;;;;;22.13;12.20;;;1.60;97.30;;;;;;5010267;28;20033;-85
2021/01/08 02:06:55;;;;;;;14.50;7.45;;;1.60;97.60;;;;;;5007027;28;20079;-85
2021/01/08 02:09:21;;;;;;;15.05;8.95;;;1.60;97.40;;;;;;5007743;28;20555;-86
2021/01/08 02:11:48;;;;;;;16.88;9.30;;;1.60;97.20;;;;;;5023634;28;20041;-87
2021/01/08 02:14:23;;;;;;;13.40;7.72;;;1.60;97.20;;;;;;5023771;28;20482;-88
2021/01/08 02:16:49;;;;;;;13.75;7.55;;;1.70;97.20;;;;;;5023579;28;20509;-86
2021/01/08 02:19:43;;;;;;;17.77;9.63;;;1.70;97.40;;;;;;5027310;28;20033;-87
2021/01/08 02:22:13;;;;;;;15.18;8.82;;;1.60;97.10;;;;;;5036022;28;20048;-89
2021/01/08 02:24:41;;;;;;;18.25;10.27;;;1.60;97.30;;;;;;5024243;28;20184;-88
2021/01/08 02:27:06;;;;;;;15.25;9.15;;;1.60;97.30;;;;;;5024372;28;20044;-88
2021/01/08 02:29:32;;;;;;;16.60;9.00;;;1.60;97.30;;;;;;5007193;28;20068;-88
2021/01/08 02:31:58;;;;;;;19.23;9.60;;;1.60;97.30;;;;;;5006597;28;20058;-87
2021/01/08 02:34:23;;;;;;;14.73;8.15;;;1.70;97.10;;;;;;4991549;28;20123;-89
2021/01/08 02:36:49;;;;;;;14.07;7.50;;;1.70;97.20;;;;;;5022358;28;20037;-88
2021/01/08 02:39:15;;;;;;;15.05;8.23;;;1.60;97.20;;;;;;5019665;28;20034;-89
2021/01/08 02:41:41;;;;;;;18.15;10.05;;;1.60;97.40;;;;;;4993567;28;20064;-89
2021/01/08 02:44:07;;;;;;;16.65;9.35;;;1.70;97.30;;;;;;5024441;28;20065;-88
2021/01/08 02:46:33;;;;;;;17.08;9.75;;;1.80;97.20;;;;;;5005140;28;20180;-86
2021/01/08 02:48:58;;;;;;;17.70;9.52;;;1.70;97.20;;;;;;5004237;28;20097;-87
2021/01/08 02:51:24;;;;;;;15.63;8.73;;;1.70;97.10;;;;;;5014991;28;20107;-85
2021/01/08 02:53:50;;;;;;;16.63;8.50;;;1.60;97.30;;;;;;5026534;28;20037;-86
2021/01/08 02:56:18;;;;;;;20.75;10.93;;;1.60;97.40;;;;;;5034319;28;20036;-88
2021/01/08 02:58:44;;;;;;;18.83;10.00;;;1.70;97.40;;;;;;5009852;28;20029;-87
2021/01/08 03:01:09;;;;;;;20.73;10.48;;;1.70;97.30;;;;;;5010731;28;20460;-87
2021/01/08 03:03:35;;;;;;;23.48;11.32;;;1.80;97.30;;;;;;5027481;28;20041;-88
2021/01/08 03:06:02;;;;;;;15.60;8.55;;;1.80;97.10;;;;;;5011742;28;20037;-83
2021/01/08 03:08:29;;;;;;;19.80;10.60;;;1.80;97.10;;;;;;5000375;28;20033;-88
2021/01/08 03:10:56;;;;;;;17.77;9.13;;;1.80;97.00;;;;;;5028662;28;20054;-87
2021/01/08 03:13:21;;;;;;;19.67;10.02;;;1.80;97.10;;;;;;5006539;28;20049;-86
2021/01/08 03:15:47;;;;;;;20.02;9.80;;;1.70;97.00;;;;;;5009865;28;20507;-86
2021/01/08 03:18:12;;;;;;;18.05;9.15;;;1.70;97.10;;;;;;5030543;28;20064;-86
2021/01/08 03:20:38;;;;;;;18.15;9.35;;;1.80;97.30;;;;;;5045107;28;20088;-84
2021/01/08 03:23:04;;;;;;;23.70;11.50;;;1.80;97.20;;;;;;5047962;28;20080;-86
2021/01/08 03:25:30;;;;;;;20.90;10.48;;;1.90;97.10;;;;;;5014427;28;20029;-85
2021/01/08 03:27:56;;;;;;;17.42;9.57;;;1.80;96.90;;;;;;5015098;28;20136;-86
2021/01/08 03:30:22;;;;;;;25.75;12.10;;;1.80;97.10;;;;;;4998404;28;20112;-84
2021/01/08 03:32:47;;;;;;;21.95;10.20;;;1.80;97.00;;;;;;5009494;28;20052;-84
2021/01/08 03:35:13;;;;;;;22.38;11.05;;;1.80;97.20;;;;;;5025120;28;20048;-85
2021/01/08 03:37:38;;;;;;;14.10;7.38;;;1.70;97.10;;;;;;5014302;28;20045;-86
2021/01/08 03:40:07;;;;;;;17.58;8.77;;;1.80;97.10;;;;;;5034298;28;20030;-81
2021/01/08 03:42:33;;;;;;;20.52;10.55;;;1.80;97.00;;;;;;5021573;28;20033;-79
2021/01/08 03:44:58;;;;;;;20.08;10.18;;;1.80;97.00;;;;;;5009350;28;20037;-80
2021/01/08 03:47:24;;;;;;;20.65;10.48;;;1.70;97.20;;;;;;5029341;28;20025;-79
2021/01/08 03:49:49;;;;;;;24.48;12.18;;;1.80;97.10;;;;;;5012686;28;20079;-81
2021/01/08 03:52:15;;;;;;;20.13;10.93;;;1.80;97.10;;;;;;5011875;28;20025;-81
2021/01/08 03:54:40;;;;;;;19.77;10.07;;;1.80;97.10;;;;;;5012518;28;20044;-82
2021/01/08 03:57:06;;;;;;;19.35;9.63;;;1.90;96.90;;;;;;5013698;28;20396;-81
2021/01/08 03:59:32;;;;;;;21.38;10.82;;;1.90;96.80;;;;;;5016783;28;20037;-83
2021/01/08 04:01:57;;;;;;;19.38;8.93;;;1.90;96.80;;;;;;5020905;28;20108;-80
2021/01/08 04:04:23;;;;;;;19.70;9.55;;;1.80;96.90;;;;;;5029426;28;20044;-79
2021/01/08 04:06:50;;;;;;;22.73;10.10;;;1.80;97.00;;;;;;5027218;28;20110;-79
2021/01/08 04:09:16;;;;;;;22.98;11.45;;;1.80;96.90;;;;;;5014874;28;20043;-80
2021/01/08 04:11:42;;;;;;;22.10;10.20;;;1.90;97.00;;;;;;5011022;28;20547;-82
2021/01/08 04:14:07;;;;;;;19.63;9.00;;;1.80;96.90;;;;;;5029581;28;20039;-80
2021/01/08 04:16:34;;;;;;;24.33;11.63;;;1.70;97.00;;;;;;4997308;28;20051;-80
2021/01/08 04:19:00;;;;;;;18.55;9.32;;;1.80;96.90;;;;;;5014749;28;20057;-80
2021/01/08 04:21:26;;;;;;;18.40;8.32;;;1.80;97.00;;;;;;5014121;28;20049;-79
2021/01/08 04:23:51;;;;;;;24.55;11.05;;;1.80;97.00;;;;;;5027668;28;20087;-79
2021/01/08 04:26:17;;;;;;;16.23;8.77;;;1.80;97.00;;;;;;4994432;28;20061;-80
2021/01/08 04:28:42;;;;;;;19.40;9.00;;;1.80;97.10;;;;;;5048766;28;20029;-81
2021/01/08 04:31:08;;;;;;;18.98;8.82;;;1.80;96.90;;;;;;5030170;28;20037;-81
2021/01/08 04:33:33;;;;;;;23.02;11.13;;;1.80;96.90;;;;;;5015187;28;20083;-80
2021/01/08 04:35:59;;;;;;;18.27;8.05;;;1.80;96.80;;;;;;5011337;28;20542;-81
2021/01/08 04:38:24;;;;;;;20.65;9.02;;;1.80;97.00;;;;;;4999814;28;20099;-80
2021/01/08 04:40:50;;;;;;;20.27;9.63;;;1.80;96.90;;;;;;5047727;28;20423;-79
2021/01/08 04:43:16;;;;;;;24.33;11.05;;;1.80;96.80;;;;;;5029397;28;20041;-80
2021/01/08 04:45:41;;;;;;;23.50;11.77;;;1.80;96.90;;;;;;5029347;28;20118;-80
2021/01/08 04:48:07;;;;;;;19.90;9.65;;;1.70;97.00;;;;;;5013476;28;20385;-81
2021/01/08 04:50:32;;;;;;;19.70;9.52;;;1.70;97.00;;;;;;5030154;28;20033;-80
2021/01/08 04:52:58;;;;;;;18.85;9.07;;;1.70;97.00;;;;;;5024588;28;20029;-81
2021/01/08 04:55:24;;;;;;;23.13;11.73;;;1.70;97.00;;;;;;5013062;28;20260;-80
2021/01/08 04:57:50;;;;;;;19.27;9.98;;;1.70;97.00;;;;;;5012856;28;20029;-79
2021/01/08 05:00:16;;;;;;;21.95;11.05;;;1.70;97.00;;;;;;5026296;28;20071;-80
2021/01/08 05:02:42;;;;;;;16.30;8.02;;;1.80;97.10;;;;;;5013033;28;20063;-79
2021/01/08 05:05:08;;;;;;;22.20;10.45;;;1.80;97.10;;;;;;5042556;28;20048;-79
2021/01/08 05:07:33;;;;;;;21.50;10.65;;;1.80;96.90;;;;;;5014981;28;20037;-79
2021/01/08 05:10:01;;;;;;;21.15;8.98;;;1.80;96.90;;;;;;5011051;28;21341;-79
2021/01/08 05:12:39;;;;;;;25.58;11.25;;;1.80;97.00;;;;;;5018976;28;20028;-79
2021/01/08 05:15:11;;;;;;;15.57;8.80;;;1.80;96.90;;;;;;5031721;28;20116;-78
2021/01/08 05:17:36;;;;;;;25.02;12.65;;;1.70;96.90;;;;;;5011759;28;20048;-79
2021/01/08 05:20:02;;;;;;;18.17;9.65;;;1.70;97.00;;;;;;5010094;28;20059;-80
2021/01/08 05:22:28;;;;;;;26.30;12.23;;;1.70;97.10;;;;;;5013478;28;20021;-79
2021/01/08 05:25:09;;;;;;;20.50;10.65;;;1.80;97.00;;;;;;5009426;28;20035;-80
2021/01/08 05:27:34;;;;;;;17.42;8.43;;;1.70;97.00;;;;;;5024426;28;20036;-81
2021/01/08 05:30:13;;;;;;;17.92;9.18;;;1.70;97.20;;;;;;5030057;28;20040;-81
2021/01/08 05:32:39;;;;;;;16.33;9.25;;;1.70;97.00;;;;;;5028737;28;20071;-81
2021/01/08 05:35:05;;;;;;;18.23;9.75;;;1.70;97.20;;;;;;5028348;28;20130;-80
2021/01/08 05:37:30;;;;;;;20.85;10.27;;;1.70;97.30;;;;;;4995834;28;20033;-81
2021/01/08 05:40:05;;;;;;;17.92;8.95;;;1.60;97.10;;;;;;5009360;28;20036;-81
2021/01/08 05:42:31;;;;;;;18.80;8.85;;;1.70;97.30;;;;;;4997371;28;20492;-80
2021/01/08 05:44:56;;;;;;;19.80;9.40;;;1.60;97.20;;;;;;5025268;28;20032;-80
2021/01/08 05:47:22;;;;;;;14.20;7.75;;;1.60;97.30;;;;;;5013999;28;20412;-81
2021/01/08 05:49:48;;;;;;;15.75;8.02;;;1.60;97.30;;;;;;5016077;28;20037;-81
2021/01/08 05:52:15;;;;;;;17.13;8.70;;;1.60;97.60;;;;;;5039778;28;20029;-80
2021/01/08 05:54:41;;;;;;;16.08;8.00;;;1.60;97.50;;;;;;5004680;28;20437;-80
2021/01/08 05:57:06;;;;;;;13.85;6.60;;;1.60;97.40;;;;;;5026944;28;20032;-81
2021/01/08 05:59:32;;;;;;;12.75;7.22;;;1.60;97.40;;;;;;5014744;28;20116;-81
2021/01/08 06:01:57;;;;;;;10.23;6.18;;;1.60;97.40;;;;;;5025754;28;20049;-82
2021/01/08 06:04:30;;;;;;;13.63;6.65;;;1.60;97.50;;;;;;5011706;28;20028;-81
2021/01/08 06:06:56;;;;;;;12.75;7.05;;;1.50;97.60;;;;;;5027118;28;20064;-81
2021/01/08 06:09:21;;;;;;;12.43;6.80;;;1.60;97.50;;;;;;5014783;28;20055;-80
2021/01/08 06:11:47;;;;;;;12.10;5.75;;;1.50;97.50;;;;;;5043172;28;20044;-80
2021/01/08 06:14:13;;;;;;;12.20;6.68;;;1.60;97.50;;;;;;5025298;28;20040;-82
2021/01/08 06:16:40;;;;;;;13.32;6.50;;;1.60;97.60;;;;;;5042206;28;20045;-81
2021/01/08 06:19:05;;;;;;;9.32;5.13;;;1.40;97.60;;;;;;5047529;28;20052;-81
2021/01/08 06:21:35;;;;;;;12.68;5.55;;;1.40;97.70;;;;;;4996193;28;20029;-80
2021/01/08 06:24:01;;;;;;;10.93;6.10;;;1.50;97.60;;;;;;5024765;28;20519;-80
2021/01/08 06:26:26;;;;;;;11.43;5.75;;;1.50;97.60;;;;;;5003941;28;20029;-81
2021/01/08 06:28:52;;;;;;;10.23;5.72;;;1.50;97.60;;;;;;5007251;28;20056;-81
2021/01/08 06:31:20;;;;;;;10.10;5.55;;;1.40;97.50;;;;;;5007101;28;20400;-84
2021/01/08 06:33:54;;;;;;;9.52;5.50;;;1.40;97.50;;;;;;5042512;28;20052;-81
2021/01/08 06:36:22;;;;;;;11.55;5.63;;;1.40;97.50;;;;;;5022025;28;20473;-83
2021/01/08 06:38:55;;;;;;;8.05;4.93;;;1.40;97.60;;;;;;5020206;28;20036;-83
2021/01/08 06:41:21;;;;;;;13.13;6.35;;;1.40;97.60;;;;;;5022162;28;20032;-82
2021/01/08 06:43:49;;;;;;;9.48;5.10;;;1.40;97.40;;;;;;5022956;28;20029;-82
2021/01/08 06:46:28;;;;;;;10.98;5.65;;;1.40;97.50;;;;;;5046527;28;20362;-82
2021/01/08 06:48:56;;;;;;;10.07;5.15;;;1.30;97.40;;;;;;5027235;28;20412;-82
2021/01/08 06:51:32;;;;;;;10.77;5.60;;;1.30;97.60;;;;;;5012700;28;20039;-82
2021/01/08 06:54:05;;;;;;;12.00;5.05;;;1.30;97.80;;;;;;5055840;28;20041;-83
2021/01/08 06:56:37;;;;;;;10.63;5.78;;;1.30;97.50;;;;;;5012829;28;20029;-82
2021/01/08 06:59:04;;;;;;;13.55;6.05;;;1.30;97.50;;;;;;5044105;28;20052;-83
2021/01/08 07:01:39;;;;;;;12.40;5.10;;;1.30;97.40;;;;;;4996925;28;20468;-81
2021/01/08 07:04:05;;;;;;;8.68;4.72;;;1.30;97.60;;;;;;5032220;28;20025;-81
2021/01/08 07:06:33;;;;;;;9.93;5.30;;;1.30;97.60;;;;;;5013511;28;20044;-83
2021/01/08 07:08:59;;;;;;;11.02;5.10;;;1.30;97.50;;;;;;5037137;28;20073;-81
2021/01/08 07:11:26;;;;;;;9.80;4.97;;;1.40;97.70;;;;;;5010599;28;20060;-83
2021/01/08 07:14:07;;;;;;;13.15;5.38;;;1.40;97.50;;;;;;5031711;28;20060;-81
2021/01/08 07:16:33;;;;;;;11.57;6.05;;;1.40;97.60;;;;;;5030665;28;20065;-81
2021/01/08 07:19:05;;;;;;;9.43;5.25;;;1.40;97.60;;;;;;5014319;28;20060;-82
2021/01/08 07:21:31;;;;;;;11.40;4.18;;;1.30;97.60;;;;;;4998354;28;20476;-80
2021/01/08 07:23:57;;;;;;;18.05;5.05;;;1.30;97.70;;;;;;5026715;28;20038;-83
2021/01/08 07:26:28;;;;;;;8.90;4.80;;;1.40;97.70;;;;;;5016494;28;20036;-84
2021/01/08 07:28:54;;;;;;;9.02;4.43;;;1.40;97.70;;;;;;5029959;28;20037;-81
2021/01/08 07:31:33;;;;;;;8.45;4.53;;;1.40;97.70;;;;;;5021972;28;20366;-83
2021/01/08 07:34:00;;;;;;;8.95;5.22;;;1.40;97.70;;;;;;5029410;28;20099;-82
2021/01/08 07:36:27;;;;;;;9.57;4.63;;;1.50;97.60;;;;;;5017935;28;20033;-82
2021/01/08 07:38:53;;;;;;;8.38;4.32;;;1.50;97.60;;;;;;5032889;28;20520;-82
2021/01/08 07:41:34;;;;;;;11.00;4.78;;;1.50;97.50;;;;;;5005084;28;20025;-82
2021/01/08 07:44:00;;;;;;;10.25;5.18;;;1.60;97.60;;;;;;5042858;28;20579;-82
2021/01/08 07:46:26;;;;;;;9.20;5.05;;;1.50;97.50;;;;;;5012099;28;20055;-83
2021/01/08 07:48:52;;;;;;;14.20;6.07;;;1.50;97.60;;;;;;5025689;28;20048;-83
2021/01/08 07:51:18;;;;;;;10.15;5.47;;;1.60;97.60;;;;;;5006516;28;20033;-81
2021/01/08 07:53:47;;;;;;;11.38;5.80;;;1.50;97.50;;;;;;5033561;28;20247;-83
2021/01/08 07:56:19;;;;;;;9.52;5.00;;;1.50;97.80;;;;;;5031217;28;20083;-83
2021/01/08 07:58:54;;;;;;;10.65;5.20;;;1.50;97.80;;;;;;5033347;28;20055;-82
2021/01/08 08:01:20;;;;;;;9.15;4.88;;;1.50;97.80;;;;;;5044398;28;20562;-80
2021/01/08 08:03:45;;;;;;;7.32;3.70;;;1.60;97.90;;;;;;5026478;28;20037;-81
2021/01/08 08:06:11;;;;;;;9.48;5.20;;;1.50;97.80;;;;;;5020446;28;20059;-82
2021/01/08 08:08:41;;;;;;;11.10;4.90;;;1.50;97.90;;;;;;5012123;28;20037;-82
2021/01/08 08:11:16;;;;;;;8.70;4.50;;;1.50;97.90;;;;;;5022958;28;20043;-81
2021/01/08 08:13:45;;;;;;;8.23;4.93;;;1.50;97.90;;;;;;5009857;28;20485;-82
2021/01/08 08:16:11;;;;;;;15.38;4.45;;;1.50;98.00;;;;;;5030779;28;20033;-81
2021/01/08 08:18:56;;;;;;;9.32;5.15;;;1.60;98.20;;;;;;5024137;28;20036;-82
2021/01/08 08:21:22;;;;;;;7.00;4.00;;;1.60;98.00;;;;;;5014584;28;20541;-81
2021/01/08 08:24:16;;;;;;;11.73;5.10;;;1.60;98.00;;;;;;5031730;28;20068;-81
2021/01/08 08:26:41;;;;;;;11.95;4.97;;;1.70;98.00;;;;;;5008947;28;20403;-82
2021/01/08 08:29:15;;;;;;;12.30;4.93;;;1.70;98.10;;;;;;5030518;28;20029;-81
2021/01/08 08:31:50;;;;;;;15.70;6.25;;;1.70;98.40;;;;;;5016960;28;20055;-83
2021/01/08 08:34:26;;;;;;;7.90;5.10;;;1.70;98.30;;;;;;5039795;28;20032;-81
2021/01/08 08:36:51;;;;;;;8.68;4.18;;;1.70;98.20;;;;;;5016690;28;20098;-83
2021/01/08 08:39:17;;;;;;;9.10;3.88;;;1.80;98.20;;;;;;5005721;28;20666;-80
2021/01/08 08:41:46;;;;;;;10.93;4.40;;;1.90;98.10;;;;;;5044364;28;20492;-81
2021/01/08 08:44:12;;;;;;;16.85;5.63;;;1.90;98.10;;;;;;5035253;28;20361;-83
2021/01/08 08:46:39;;;;;;;14.35;7.82;;;1.90;98.10;;;;;;5051277;28;20064;-83
2021/01/08 08:49:06;;;;;;;10.20;5.95;;;2.00;98.40;;;;;;5025962;28;20044;-85
2021/01/08 08:51:31;;;;;;;14.05;6.72;;;1.90;98.30;;;;;;5011902;28;20037;-83
2021/01/08 08:53:58;;;;;;;16.08;9.35;;;2.00;98.50;;;;;;5025762;28;20044;-83
2021/01/08 08:56:23;;;;;;;18.08;9.23;;;2.00;98.80;;;;;;5013259;28;20057;-83
2021/01/08 08:58:49;;;;;;;21.50;11.82;;;2.00;98.90;;;;;;5030923;28;20052;-82
2021/01/08 09:01:14;;;;;;;11.85;7.18;;;2.00;98.90;;;;;;5012758;28;20074;-81
2021/01/08 09:03:40;;;;;;;22.00;13.38;;;2.10;99.00;;;;;;5036678;28;20041;-83
2021/01/08 09:06:09;;;;;;;17.33;8.40;;;2.10;99.00;;;;;;5007799;28;20022;-82
2021/01/08 09:08:37;;;;;;;12.48;6.80;;;2.10;98.90;;;;;;4998563;28;20078;-82
2021/01/08 09:11:17;;;;;;;15.52;8.20;;;2.20;98.80;;;;;;5027158;28;20556;-82
2021/01/08 09:13:56;;;;;;;15.07;7.90;;;2.20;98.70;;;;;;5010842;28;20044;-83
2021/01/08 09:16:25;;;;;;;18.30;7.53;;;2.30;98.50;;;;;;5039849;28;20041;-82
2021/01/08 09:19:02;;;;;;;21.17;8.25;;;2.30;98.60;;;;;;5026602;28;20032;-83
2021/01/08 09:21:31;;;;;;;16.63;6.35;;;2.30;98.60;;;;;;5027030;28;20079;-82
2021/01/08 09:23:58;;;;;;;10.20;5.60;;;2.30;98.70;;;;;;5025497;28;20099;-81
2021/01/08 09:26:25;;;;;;;29.05;7.97;;;2.40;98.80;;;;;;4999750;28;20656;-81
2021/01/08 09:28:52;;;;;;;21.50;7.82;;;2.40;98.90;;;;;;5016849;28;20472;-81
2021/01/08 09:31:18;;;;;;;17.27;9.35;;;2.40;98.90;;;;;;5015435;28;20052;-81
2021/01/08 09:33:56;;;;;;;17.17;9.43;;;2.40;99.10;;;;;;5028580;28;20065;-81
2021/01/08 09:36:29;;;;;;;14.80;8.30;;;2.40;98.90;;;;;;5038659;28;20029;-80
2021/01/08 09:39:01;;;;;;;14.18;7.60;;;2.50;98.80;;;;;;5029061;28;20029;-80
2021/01/08 09:41:26;;;;;;;12.93;7.55;;;2.50;98.80;;;;;;5016278;28;20498;-81
2021/01/08 09:43:57;;;;;;;14.98;8.20;;;2.50;99.10;;;;;;4996624;28;20112;-82
2021/01/08 09:46:23;;;;;;;16.48;9.30;;;2.60;98.90;;;;;;5028857;28;20029;-82
2021/01/08 09:48:49;;;;;;;13.68;8.35;;;2.60;98.90;;;;;;5025608;28;20037;-81
2021/01/08 09:51:14;;;;;;;17.00;8.95;;;2.60;98.90;;;;;;5028264;28;20033;-82
2021/01/08 09:53:51;;;;;;;14.23;7.88;;;2.60;99.00;;;;;;5026525;28;20044;-84
2021/01/08 09:56:17;;;;;;;15.20;8.90;;;2.70;98.90;;;;;;5028606;28;20029;-82
2021/01/08 09:58:43;;;;;;;14.43;7.45;;;2.70;99.00;;;;;;5023246;28;20039;-82
2021/01/08 10:01:12;;;;;;;14.88;8.50;;;2.70;99.00;;;;;;5028318;28;20028;-82
2021/01/08 10:03:38;;;;;;;14.40;7.22;;;2.80;98.90;;;;;;5028873;28;20037;-81
2021/01/08 10:06:09;;;;;;;15.43;7.40;;;2.80;98.80;;;;;;4997007;28;20079;-82
2021/01/08 10:08:35;;;;;;;16.23;9.40;;;2.90;99.00;;;;;;5015331;28;20047;-81
2021/01/08 10:11:00;;;;;;;13.25;6.88;;;3.00;99.10;;;;;;4996017;28;20041;-82
2021/01/08 10:13:26;;;;;;;8.23;5.15;;;3.00;98.80;;;;;;4998204;28;20067;-82
2021/01/08 10:15:53;;;;;;;14.23;7.55;;;3.00;98.70;;;;;;5040027;28;20060;-81
2021/01/08 10:18:26;;;;;;;11.90;5.78;;;3.10;98.90;;;;;;5014131;28;20040;-82
2021/01/08 10:20:53;;;;;;;18.50;7.15;;;3.10;98.90;;;;;;5058342;28;20033;-83
2021/01/08 10:23:20;;;;;;;20.25;7.53;;;3.10;98.90;;;;;;5013351;28;20032;-82
2021/01/08 10:25:46;;;;;;;19.65;8.50;;;3.20;99.10;;;;;;5015229;28;20029;-83
2021/01/08 10:28:18;;;;;;;11.45;5.95;;;3.20;98.80;;;;;;5028288;28;20489;-80
2021/01/08 10:30:45;;;;;;;6.82;4.38;;;3.20;99.00;;;;;;5028798;28;20036;-82
2021/01/08 10:33:11;;;;;;;8.23;4.82;;;3.20;98.90;;;;;;5030176;28;20056;-81
2021/01/08 10:35:36;;;;;;;6.40;4.25;;;3.30;99.00;;;;;;5043993;28;20049;-81
2021/01/08 10:38:03;;;;;;;9.27;4.28;;;3.20;98.80;;;;;;5020651;28;20152;-82
2021/01/08 10:40:28;;;;;;;8.32;4.32;;;3.20;98.90;;;;;;4996414;28;20536;-81
2021/01/08 10:42:54;;;;;;;10.52;3.55;;;3.30;99.00;;;;;;5030086;28;20101;-80
2021/01/08 10:45:20;;;;;;;5.45;2.95;;;3.20;98.90;;;;;;5003137;28;20116;-80
2021/01/08 10:47:45;;;;;;;18.05;4.05;;;3.30;98.80;;;;;;5024147;28;20112;-81
2021/01/08 10:50:12;;;;;;;8.43;4.45;;;3.30;99.10;;;;;;5027247;28;20037;-82
2021/01/08 10:52:48;;;;;;;6.32;3.83;;;3.30;98.70;;;;;;5028994;28;20032;-83
2021/01/08 10:55:21;;;;;;;;;;;3.30;98.90;;;;;;5006079;28;20048;-82
2021/01/08 10:57:47;;;;;;;7.38;4.25;;;3.30;98.80;;;;;;4993060;28;19940;-82
2021/01/08 11:00:21;;;;;;;6.15;4.28;;;3.20;98.80;;;;;;4987914;28;20063;-83
2021/01/08 11:02:46;;;;;;;8.00;4.00;;;3.30;98.80;;;;;;5020225;28;20046;-82
2021/01/08 11:05:12;;;;;;;6.05;3.88;;;3.30;99.00;;;;;;5054648;28;20029;-82
2021/01/08 11:07:38;;;;;;;4.80;3.42;;;3.30;98.90;;;;;;5017872;28;20041;-82
2021/01/08 11:10:04;;;;;;;13.43;4.47;;;3.30;98.40;;;;;;5020638;28;20133;-82
2021/01/08 11:12:31;;;;;;;6.15;4.07;;;3.40;99.00;;;;;;4990661;28;20637;-82
2021/01/08 11:14:57;;;;;;;4.90;3.80;;;3.30;98.90;;;;;;5019265;28;20072;-83
2021/01/08 11:17:23;;;;;;;8.32;4.10;;;3.30;99.00;;;;;;5007517;28;20489;-82
2021/01/08 11:19:48;;;;;;;4.97;4.00;;;3.40;99.00;;;;;;5022342;28;20036;-84
2021/01/08 11:22:14;;;;;;;8.15;4.10;;;3.40;99.10;;;;;;5021775;28;20033;-82
2021/01/08 11:24:40;;;;;;;6.90;4.43;;;3.40;98.90;;;;;;5021267;28;20481;-83
2021/01/08 11:27:05;;;;;;;5.07;3.97;;;3.40;98.90;;;;;;5019664;28;20030;-82
2021/01/08 11:29:31;;;;;;;5.15;3.83;;;3.40;98.80;;;;;;4988604;28;20105;-80
2021/01/08 11:31:57;;;;;;;4.28;3.08;;;3.40;99.00;;;;;;5020234;28;20493;-82
2021/01/08 11:34:22;;;;;;;5.70;4.13;;;3.50;98.90;;;;;;4989775;28;20511;-81
2021/01/08 11:36:48;;;;;;;5.20;3.08;;;3.40;98.90;;;;;;5038638;28;20029;-83
2021/01/08 11:39:14;;;;;;;5.13;3.70;;;3.40;98.90;;;;;;5022154;28;20082;-81
2021/01/08 11:41:40;;;;;;;5.38;3.65;;;3.40;98.90;;;;;;5022079;28;20025;-81
2021/01/08 11:44:06;;;;;;;5.95;3.47;;;3.40;98.90;;;;;;5038350;28;20367;-82
2021/01/08 11:46:32;;;;;;;4.78;3.47;;;3.40;99.00;;;;;;5007305;28;20034;-82
2021/01/08 11:48:58;;;;;;;4.82;3.00;;;3.40;98.70;;;;;;5022066;28;20087;-82
2021/01/08 11:51:23;;;;;;;4.68;3.30;;;3.40;98.70;;;;;;4990608;28;20061;-81
2021/01/08 11:53:49;;;;;;;5.72;3.78;;;3.40;98.70;;;;;;5020120;28;20060;-82
2021/01/08 11:56:15;;;;;;;5.35;3.35;;;3.40;98.90;;;;;;5022034;28;20397;-83
2021/01/08 11:58:41;;;;;;;4.53;3.05;;;3.40;99.00;;;;;;5020292;28;20491;-81
2021/01/08 12:01:07;;;;;;;4.38;3.22;;;3.40;99.00;;;;;;5024936;28;20158;-82
2021/01/08 12:03:39;;;;;;;4.70;3.28;;;3.50;99.00;;;;;;4979470;28;20032;-83
2021/01/08 12:06:05;;;;;;;4.35;3.05;;;3.50;99.10;;;;;;5004349;28;20068;-82
2021/01/08 12:08:34;;;;;;;4.93;3.47;;;3.60;99.10;;;;;;4993262;28;20504;-83
2021/01/08 12:11:00;;;;;;;4.78;3.08;;;3.60;99.10;;;;;;5023574;28;20141;-83
2021/01/08 12:13:26;;;;;;;4.80;3.65;;;3.60;99.10;;;;;;5009927;28;20026;-82
2021/01/08 12:15:52;;;;;;;6.07;4.07;;;3.60;99.20;;;;;;5024958;28;20048;-83
2021/01/08 12:18:18;;;;;;;5.85;3.80;;;3.60;99.20;;;;;;5024878;28;20044;-83
2021/01/08 12:20:44;;;;;;;10.85;3.50;;;3.70;99.20;;;;;;5024736;28;20493;-82
2021/01/08 12:23:10;;;;;;;7.13;4.03;;;3.70;99.10;;;;;;5024302;28;20026;-81
2021/01/08 12:25:36;;;;;;;5.38;4.15;;;3.70;99.20;;;;;;5021222;28;20033;-82
2021/01/08 12:28:06;;;;;;;4.88;3.35;;;3.70;99.30;;;;;;5023092;28;20034;-80
2021/01/08 12:30:32;;;;;;;4.72;3.30;;;3.60;99.30;;;;;;5022218;28;20040;-81
2021/01/08 12:32:58;;;;;;;5.45;3.90;;;3.60;99.30;;;;;;5008343;28;20028;-83
2021/01/08 12:35:23;;;;;;;5.53;3.92;;;3.60;99.40;;;;;;5008725;28;20072;-83
2021/01/08 12:37:50;;;;;;;5.50;3.92;;;3.50;99.30;;;;;;5022652;28;20063;-82
2021/01/08 12:40:16;;;;;;;5.45;3.90;;;3.50;99.30;;;;;;5023794;28;20021;-83
2021/01/08 12:42:41;;;;;;;6.85;3.90;;;3.60;99.40;;;;;;5024274;28;20034;-83
2021/01/08 12:45:09;;;;;;;7.30;4.43;;;3.50;99.20;;;;;;5022089;28;20033;-81
2021/01/08 12:47:34;;;;;;;29.23;5.90;;;3.50;99.30;;;;;;5008340;28;20481;-81